createdAt,value
2018-12-13T00:01:22.046Z,15.50
2018-12-13T00:02:22.016Z,14.60
2018-12-13T00:04:25.956Z,14.90
2018-12-13T00:05:25.871Z,14.50
2018-12-13T00:07:30.326Z,13.90
2018-12-13T00:08:30.275Z,14.60
2018-12-13T00:10:34.236Z,15.10
2018-12-13T00:11:34.198Z,14.50
2018-12-13T00:13:38.194Z,14.70
2018-12-13T00:14:38.106Z,15.30
2018-12-13T00:16:42.111Z,14.90
2018-12-13T00:17:42.015Z,15.10
2018-12-13T00:19:34.958Z,14.30
2018-12-13T00:20:34.867Z,14.30
2018-12-13T00:22:38.874Z,14.60
2018-12-13T00:23:38.839Z,14.80
2018-12-13T00:25:42.777Z,14.30
2018-12-13T00:26:42.685Z,15.00
2018-12-13T00:28:46.637Z,14.70
2018-12-13T00:29:46.658Z,14.50
2018-12-13T00:31:50.598Z,14.90
2018-12-13T00:32:50.504Z,14.70
2018-12-13T00:34:54.506Z,14.30
2018-12-13T00:35:54.407Z,14.30
2018-12-13T00:37:58.424Z,13.20
2018-12-13T00:38:58.329Z,14.30
2018-12-13T00:41:02.334Z,14.00
2018-12-13T00:42:02.227Z,13.80
2018-12-13T00:44:06.196Z,13.80
2018-12-13T00:45:06.252Z,14.60
2018-12-13T00:47:10.145Z,14.50
2018-12-13T00:48:10.056Z,15.30
2018-12-13T00:50:03.020Z,14.50
2018-12-13T00:51:02.895Z,15.10
2018-12-13T00:53:06.908Z,15.40
2018-12-13T00:54:06.806Z,15.20
2018-12-13T00:56:10.826Z,14.90
2018-12-13T00:57:10.715Z,15.50
2018-12-13T00:59:14.745Z,15.10
2018-12-13T01:00:14.699Z,15.00
2018-12-13T01:02:18.634Z,15.00
2018-12-13T01:03:18.550Z,15.20
2018-12-13T01:05:22.497Z,15.60
2018-12-13T01:06:22.446Z,14.50
2018-12-13T01:08:26.479Z,15.20
2018-12-13T01:09:26.358Z,15.60
2018-12-13T01:11:30.364Z,15.70
2018-12-13T01:12:30.266Z,15.30
2018-12-13T01:14:34.274Z,15.20
2018-12-13T01:15:34.191Z,14.90
2018-12-13T01:17:38.197Z,15.80
2018-12-13T01:18:38.101Z,15.10
2018-12-13T01:20:42.057Z,15.00
2018-12-13T01:21:42.011Z,15.10
2018-12-13T01:23:46.018Z,14.80
2018-12-13T01:24:45.916Z,15.30
2018-12-13T01:26:49.867Z,14.90
2018-12-13T01:27:49.825Z,15.40
2018-12-13T01:29:42.776Z,15.90
2018-12-13T01:30:42.677Z,15.30
2018-12-13T01:32:46.742Z,15.60
2018-12-13T01:33:46.755Z,15.70
2018-12-13T01:35:50.696Z,15.80
2018-12-13T01:36:52.538Z,15.60
2018-12-13T01:38:54.617Z,16.10
2018-12-13T01:39:54.510Z,16.80
2018-12-13T01:41:58.517Z,16.40
2018-12-13T01:42:58.417Z,16.50
2018-12-13T01:45:02.437Z,17.40
2018-12-13T01:46:02.328Z,16.60
2018-12-13T01:48:06.346Z,16.80
2018-12-13T01:49:06.236Z,16.10
2018-12-13T01:51:10.246Z,16.40
2018-12-13T01:52:10.165Z,16.60
2018-12-13T01:54:14.155Z,16.90
2018-12-13T01:55:14.068Z,16.70
2018-12-13T01:57:18.080Z,17.70
2018-12-13T01:58:18.044Z,16.30
2018-12-13T02:00:10.926Z,18.10
2018-12-13T02:01:10.832Z,17.90
2018-12-13T02:03:14.877Z,16.70
2018-12-13T02:04:14.739Z,17.40
2018-12-13T02:06:18.757Z,17.10
2018-12-13T02:07:18.647Z,16.60
2018-12-13T02:09:22.650Z,17.00
2018-12-13T02:10:22.557Z,17.30
2018-12-13T02:12:26.558Z,17.00
2018-12-13T02:13:26.460Z,17.00
2018-12-13T02:15:30.477Z,16.10
2018-12-13T02:16:30.368Z,17.00
2018-12-13T02:18:34.380Z,16.80
2018-12-13T02:19:34.277Z,17.20
2018-12-13T02:21:38.294Z,16.40
2018-12-13T02:22:38.188Z,16.00
2018-12-13T02:24:42.145Z,17.00
2018-12-13T02:25:42.102Z,17.50
2018-12-13T02:27:46.118Z,16.00
2018-12-13T02:28:46.020Z,16.90
2018-12-13T02:30:50.016Z,15.20
2018-12-13T02:31:49.927Z,16.00
2018-12-13T02:33:53.929Z,16.00
2018-12-13T02:34:53.834Z,15.70
2018-12-13T02:36:57.839Z,16.00
2018-12-13T02:37:57.737Z,16.40
2018-12-13T02:39:50.686Z,15.30
2018-12-13T02:40:50.594Z,15.90
2018-12-13T02:42:54.596Z,15.80
2018-12-13T02:43:54.500Z,15.70
2018-12-13T02:45:58.506Z,15.70
2018-12-13T02:46:58.406Z,15.70
2018-12-13T02:49:02.419Z,15.30
2018-12-13T02:50:02.316Z,15.90
2018-12-13T02:52:06.339Z,15.50
2018-12-13T02:53:06.228Z,15.30
2018-12-13T02:55:10.178Z,15.40
2018-12-13T02:56:10.221Z,15.60
2018-12-13T02:58:14.146Z,15.70
2018-12-13T02:59:14.058Z,15.50
2018-12-13T03:01:18.008Z,14.70
2018-12-13T03:02:17.957Z,15.70
2018-12-13T03:04:21.965Z,14.60
2018-12-13T03:05:21.880Z,15.70
2018-12-13T03:07:25.875Z,15.60
2018-12-13T03:08:25.777Z,15.00
2018-12-13T03:10:29.807Z,15.50
2018-12-13T03:11:29.690Z,15.90
2018-12-13T03:14:04.156Z,15.50
2018-12-13T03:15:04.052Z,16.70
2018-12-13T03:17:08.010Z,15.90
2018-12-13T03:18:07.958Z,16.30
2018-12-13T03:20:00.927Z,16.40
2018-12-13T03:21:00.816Z,16.00
2018-12-13T03:23:04.828Z,15.40
2018-12-13T03:24:04.720Z,15.40
2018-12-13T03:26:08.729Z,16.90
2018-12-13T03:27:08.630Z,16.50
2018-12-13T03:29:12.638Z,16.80
2018-12-13T03:30:12.539Z,16.50
2018-12-13T03:32:16.570Z,16.70
2018-12-13T03:33:16.529Z,16.00
2018-12-13T03:35:20.458Z,16.80
2018-12-13T03:36:20.357Z,16.40
2018-12-13T03:38:24.299Z,17.10
2018-12-13T03:39:24.266Z,15.90
2018-12-13T03:41:28.276Z,16.90
2018-12-13T03:42:28.178Z,16.20
2018-12-13T03:44:32.187Z,16.80
2018-12-13T03:45:32.099Z,15.60
2018-12-13T03:47:36.110Z,16.50
2018-12-13T03:48:36.020Z,15.80
2018-12-13T03:50:40.018Z,16.70
2018-12-13T03:51:39.919Z,16.00
2018-12-13T03:53:43.946Z,16.20
2018-12-13T03:54:43.816Z,16.50
2018-12-13T03:56:47.837Z,16.30
2018-12-13T03:57:47.727Z,16.10
2018-12-13T03:59:40.616Z,17.00
2018-12-13T04:00:40.589Z,16.10
2018-12-13T04:02:44.587Z,16.50
2018-12-13T04:03:44.486Z,16.90
2018-12-13T04:05:48.513Z,16.50
2018-12-13T04:06:48.427Z,15.70
2018-12-13T04:08:52.417Z,16.50
2018-12-13T04:09:52.319Z,16.90
2018-12-13T04:11:56.328Z,16.10
2018-12-13T04:12:56.215Z,16.40
2018-12-13T04:15:00.230Z,16.30
2018-12-13T04:16:00.145Z,16.30
2018-12-13T04:18:04.140Z,16.70
2018-12-13T04:19:04.050Z,15.90
2018-12-13T04:21:08.047Z,16.40
2018-12-13T04:22:07.948Z,16.50
2018-12-13T04:24:11.957Z,15.80
2018-12-13T04:25:11.858Z,15.60
2018-12-13T04:27:15.876Z,16.30
2018-12-13T04:28:15.789Z,16.00
2018-12-13T04:30:09.037Z,15.80
2018-12-13T04:31:08.689Z,15.80
2018-12-13T04:33:12.627Z,15.70
2018-12-13T04:34:12.531Z,16.20
2018-12-13T04:36:16.497Z,16.00
2018-12-13T04:37:16.437Z,16.50
2018-12-13T04:39:20.450Z,16.00
2018-12-13T04:40:20.348Z,16.00
2018-12-13T04:42:24.357Z,16.60
2018-12-13T04:43:24.258Z,16.90
2018-12-13T04:45:28.280Z,16.10
2018-12-13T04:46:28.167Z,17.10
2018-12-13T04:48:32.178Z,16.50
2018-12-13T04:49:32.077Z,16.30
2018-12-13T04:51:36.091Z,16.40
2018-12-13T04:52:35.987Z,15.70
2018-12-13T04:54:40.013Z,16.10
2018-12-13T04:55:39.895Z,16.50
2018-12-13T04:57:43.857Z,16.40
2018-12-13T04:58:43.887Z,16.10
2018-12-13T05:00:47.826Z,16.20
2018-12-13T05:01:47.785Z,16.80
2018-12-13T05:03:51.738Z,16.70
2018-12-13T05:04:51.626Z,16.00
2018-12-13T05:06:55.635Z,16.80
2018-12-13T05:07:55.535Z,16.90
2018-12-13T05:09:48.497Z,15.70
2018-12-13T05:10:48.385Z,16.30
2018-12-13T05:12:52.395Z,16.10
2018-12-13T05:13:52.311Z,16.30
2018-12-13T05:15:56.328Z,15.90
2018-12-13T05:16:56.205Z,16.00
2018-12-13T05:19:00.167Z,16.30
2018-12-13T05:20:00.189Z,16.60
2018-12-13T05:22:04.137Z,15.80
2018-12-13T05:23:04.025Z,16.60
2018-12-13T05:25:08.038Z,16.30
2018-12-13T05:26:07.947Z,15.80
2018-12-13T05:28:12.044Z,16.10
2018-12-13T05:29:12.016Z,16.40
2018-12-13T05:31:15.954Z,17.50
2018-12-13T05:32:15.855Z,16.50
2018-12-13T05:34:19.828Z,16.60
2018-12-13T05:35:19.777Z,16.40
2018-12-13T05:37:23.786Z,16.10
2018-12-13T05:38:23.677Z,16.70
2018-12-13T05:40:27.700Z,16.80
2018-12-13T05:41:27.595Z,17.00
2018-12-13T05:43:31.607Z,16.30
2018-12-13T05:44:31.509Z,16.80
2018-12-13T05:46:36.536Z,17.10
2018-12-13T05:47:35.428Z,16.30
2018-12-13T05:49:28.379Z,16.70
2018-12-13T05:50:28.265Z,16.30
2018-12-13T05:52:32.218Z,17.00
2018-12-13T05:53:32.247Z,16.60
2018-12-13T05:55:36.136Z,16.60
2018-12-13T05:56:36.156Z,16.80
2018-12-13T05:58:40.107Z,16.70
2018-12-13T05:59:39.996Z,17.30
2018-12-13T06:01:44.016Z,16.80
2018-12-13T06:02:43.917Z,16.90
2018-12-13T06:04:47.926Z,18.50
2018-12-13T06:05:47.816Z,17.00
2018-12-13T06:07:54.949Z,17.40
2018-12-13T06:08:51.729Z,16.80
2018-12-13T06:10:55.751Z,17.30
2018-12-13T06:11:55.659Z,16.80
2018-12-13T06:13:59.665Z,17.20
2018-12-13T06:14:59.537Z,16.70
2018-12-13T06:17:03.569Z,16.60
2018-12-13T06:18:06.837Z,16.40
2018-12-13T06:19:56.412Z,16.90
2018-12-13T06:20:56.319Z,16.80
2018-12-13T06:23:00.325Z,16.90
2018-12-13T06:24:00.226Z,17.50
2018-12-13T06:26:04.267Z,15.80
2018-12-13T06:27:04.228Z,16.00
2018-12-13T06:29:08.178Z,16.70
2018-12-13T06:30:08.069Z,16.70
2018-12-13T06:32:12.127Z,15.90
2018-12-13T06:33:12.077Z,16.70
2018-12-13T06:35:16.096Z,16.10
2018-12-13T06:36:16.000Z,16.20
2018-12-13T06:38:20.016Z,17.20
2018-12-13T06:39:19.911Z,15.50
2018-12-13T06:41:23.924Z,15.60
2018-12-13T06:42:23.827Z,15.70
2018-12-13T06:44:28.348Z,16.40
2018-12-13T06:45:28.235Z,16.40
2018-12-13T06:47:32.196Z,15.90
2018-12-13T06:48:32.158Z,16.10
2018-12-13T06:50:36.178Z,16.10
2018-12-13T06:51:36.066Z,16.80
2018-12-13T06:53:40.096Z,16.80
2018-12-13T06:54:39.976Z,17.20
2018-12-13T06:56:43.997Z,17.10
2018-12-13T06:57:43.886Z,16.70
2018-12-13T06:59:36.858Z,16.90
2018-12-13T07:00:36.749Z,17.80
2018-12-13T07:02:40.777Z,16.70
2018-12-13T07:03:40.658Z,17.80
2018-12-13T07:05:44.678Z,17.70
2018-12-13T07:06:44.576Z,17.00
2018-12-13T07:08:48.597Z,17.40
2018-12-13T07:09:48.480Z,16.80
2018-12-13T07:11:52.494Z,16.50
2018-12-13T07:12:52.395Z,16.80
2018-12-13T07:14:56.415Z,16.80
2018-12-13T07:15:56.310Z,17.50
2018-12-13T07:18:00.326Z,17.00
2018-12-13T07:19:00.214Z,17.00
2018-12-13T07:21:04.238Z,17.00
2018-12-13T07:22:04.140Z,16.20
2018-12-13T07:24:08.149Z,16.90
2018-12-13T07:25:08.038Z,15.80
2018-12-13T07:27:12.068Z,16.40
2018-12-13T07:28:11.955Z,16.30
2018-12-13T07:30:04.918Z,16.40
2018-12-13T07:31:04.820Z,16.50
2018-12-13T07:33:08.831Z,16.60
2018-12-13T07:34:08.720Z,15.30
2018-12-13T07:36:12.736Z,15.80
2018-12-13T07:37:12.639Z,15.70
2018-12-13T07:39:16.657Z,15.10
2018-12-13T07:40:16.568Z,14.60
2018-12-13T07:42:20.577Z,14.60
2018-12-13T07:43:20.465Z,14.60
2018-12-13T07:45:24.474Z,14.20
2018-12-13T07:46:24.367Z,13.70
2018-12-13T07:48:28.336Z,13.40
2018-12-13T07:49:28.370Z,12.90
2018-12-13T07:51:32.297Z,12.30
2018-12-13T07:52:32.198Z,12.80
2018-12-13T07:54:36.217Z,11.50
2018-12-13T07:55:36.108Z,12.30
2018-12-13T07:57:40.138Z,12.30
2018-12-13T07:58:40.018Z,11.70
2018-12-13T08:00:43.966Z,12.30
2018-12-13T08:01:43.927Z,12.20
2018-12-13T08:03:48.057Z,12.10
2018-12-13T08:04:47.946Z,11.60
2018-12-13T08:06:52.077Z,11.60
2018-12-13T08:07:51.956Z,11.40
2018-12-13T08:09:44.977Z,11.30
2018-12-13T08:10:44.906Z,11.80
2018-12-13T08:12:49.035Z,11.40
2018-12-13T08:13:48.954Z,11.30
2018-12-13T08:15:52.947Z,11.50
2018-12-13T08:16:52.857Z,11.70
2018-12-13T08:18:56.877Z,12.00
2018-12-13T08:19:56.777Z,11.00
2018-12-13T08:22:00.776Z,12.40
2018-12-13T08:23:00.680Z,11.90
2018-12-13T08:25:04.687Z,11.60
2018-12-13T08:26:04.587Z,11.20
2018-12-13T08:28:08.599Z,11.30
2018-12-13T08:29:08.500Z,11.30
2018-12-13T08:31:12.446Z,11.60
2018-12-13T08:32:12.487Z,11.60
2018-12-13T08:34:16.529Z,11.80
2018-12-13T08:35:16.421Z,11.40
2018-12-13T08:37:20.545Z,11.20
2018-12-13T08:38:20.409Z,11.30
2018-12-13T08:40:24.408Z,12.50
2018-12-13T08:41:24.348Z,11.30
2018-12-13T08:43:28.485Z,11.80
2018-12-13T08:44:28.357Z,11.10
2018-12-13T08:46:36.547Z,11.50
2018-12-13T08:47:32.870Z,11.90
2018-12-13T08:49:25.760Z,11.40
2018-12-13T08:50:25.639Z,11.00
2018-12-13T08:52:29.766Z,12.40
2018-12-13T08:53:29.656Z,46.30
2018-12-13T08:55:33.878Z,13.10
2018-12-13T08:56:33.686Z,12.10
2018-12-13T08:58:37.799Z,11.90
2018-12-13T08:59:37.690Z,11.70
2018-12-13T09:01:41.736Z,11.70
2018-12-13T09:02:41.696Z,11.70
2018-12-13T09:04:45.837Z,11.50
2018-12-13T09:05:45.718Z,11.20
2018-12-13T09:07:49.808Z,11.60
2018-12-13T09:08:49.728Z,11.60
2018-12-13T09:10:53.847Z,11.30
2018-12-13T09:11:53.746Z,11.00
2018-12-13T09:15:29.587Z,11.70
2018-12-13T09:16:31.586Z,11.20
2018-12-13T09:18:33.428Z,9.20
2018-12-13T09:19:33.447Z,9.20
2018-12-13T09:21:37.411Z,9.00
2018-12-13T09:22:37.324Z,8.70
2018-12-13T09:24:41.407Z,9.10
2018-12-13T09:25:41.321Z,10.00
2018-12-13T09:27:45.323Z,8.30
2018-12-13T09:28:45.219Z,8.90
2018-12-13T09:30:49.707Z,7.80
2018-12-13T09:31:49.640Z,8.40
2018-12-13T09:33:53.602Z,8.40
2018-12-13T09:34:53.610Z,8.90
2018-12-13T09:36:57.661Z,8.40
2018-12-13T09:37:57.574Z,8.90
2018-12-13T09:39:50.464Z,8.50
2018-12-13T09:40:50.477Z,8.50
2018-12-13T09:42:54.518Z,8.30
2018-12-13T09:43:54.426Z,7.50
2018-12-13T09:45:58.601Z,7.20
2018-12-13T09:46:58.460Z,7.30
2018-12-13T09:49:02.646Z,7.40
2018-12-13T09:50:02.558Z,7.20
2018-12-13T09:52:06.660Z,7.40
2018-12-13T09:53:06.588Z,8.90
2018-12-13T09:55:10.628Z,7.40
2018-12-13T09:56:10.618Z,10.10
2018-12-13T09:58:14.705Z,9.50
2018-12-13T09:59:14.613Z,7.90
2018-12-13T10:01:18.697Z,13.40
2018-12-13T10:02:18.618Z,8.20
2018-12-13T10:04:22.717Z,7.40
2018-12-13T10:05:22.648Z,8.10
2018-12-13T10:07:26.730Z,8.30
2018-12-13T10:08:26.649Z,7.40
2018-12-13T10:10:30.747Z,6.80
2018-12-13T10:11:30.698Z,7.20
2018-12-13T10:12:30.648Z,7.30
2018-12-13T10:13:30.718Z,7.00
2018-12-13T10:14:30.616Z,7.30
2018-12-13T10:15:32.205Z,7.30
2018-12-13T10:16:30.587Z,7.10
2018-12-13T10:17:30.638Z,7.00
2018-12-13T10:18:30.569Z,7.20
2018-12-13T10:19:30.649Z,6.90
2018-12-13T10:20:30.535Z,7.20
2018-12-13T10:21:30.560Z,7.00
2018-12-13T10:22:30.520Z,7.40
2018-12-13T10:23:30.567Z,7.00
2018-12-13T10:24:30.477Z,7.30
2018-12-13T10:25:30.601Z,7.30
2018-12-13T10:26:30.458Z,7.30
2018-12-13T10:27:30.447Z,7.40
2018-12-13T10:28:30.496Z,6.90
2018-12-13T10:29:30.430Z,7.20
2018-12-13T10:30:30.518Z,7.20
2018-12-13T10:31:30.396Z,7.60
2018-12-13T10:32:30.387Z,8.10
2018-12-13T10:33:30.369Z,7.60
2018-12-13T10:34:30.439Z,7.20
2018-12-13T10:35:30.346Z,7.10
2018-12-13T10:36:30.446Z,7.40
2018-12-13T10:37:30.326Z,7.60
2018-12-13T10:38:30.355Z,7.60
2018-12-13T10:39:30.303Z,7.60
2018-12-13T10:40:30.467Z,8.30
2018-12-13T10:41:30.277Z,7.90
2018-12-13T10:42:30.377Z,8.00
2018-12-13T10:43:30.270Z,7.10
2018-12-13T10:44:30.391Z,7.10
2018-12-13T10:45:30.248Z,7.20
2018-12-13T10:46:30.403Z,7.60
2018-12-13T10:47:30.216Z,7.70
2018-12-13T10:48:30.197Z,7.80
2018-12-13T10:49:30.322Z,6.90
2018-12-13T10:50:30.182Z,7.80
2018-12-13T10:51:30.348Z,8.10
2018-12-13T10:52:30.156Z,7.70
2018-12-13T10:53:30.147Z,8.20
2018-12-13T10:54:30.137Z,8.30
2018-12-13T10:55:30.255Z,7.30
2018-12-13T10:56:30.117Z,7.00
2018-12-13T10:57:30.287Z,6.80
2018-12-13T10:58:30.091Z,7.40
2018-12-13T10:59:30.175Z,6.90
2018-12-13T11:00:30.070Z,7.20
2018-12-13T11:01:30.099Z,7.30
2018-12-13T11:02:30.046Z,7.30
2018-12-13T11:03:30.129Z,7.00
2018-12-13T11:04:30.027Z,7.00
2018-12-13T11:05:30.127Z,7.80
2018-12-13T11:06:30.028Z,7.20
2018-12-13T11:07:30.049Z,7.10
2018-12-13T11:08:29.987Z,6.90
2018-12-13T11:09:29.966Z,7.10
2018-12-13T11:10:29.969Z,7.70
2018-12-13T11:11:30.211Z,7.50
2018-12-13T11:12:29.924Z,7.30
2018-12-13T11:13:29.978Z,7.30
2018-12-13T11:14:29.986Z,7.80
2018-12-13T11:15:29.905Z,7.30
2018-12-13T11:16:29.998Z,7.60
2018-12-13T11:17:29.878Z,8.20
2018-12-13T11:18:29.910Z,9.80
2018-12-13T11:19:29.857Z,7.70
2018-12-13T11:20:29.924Z,8.10
2018-12-13T11:21:29.844Z,6.80
2018-12-13T11:22:29.948Z,7.30
2018-12-13T11:23:29.821Z,9.80
2018-12-13T11:24:29.826Z,7.60
2018-12-13T11:25:29.799Z,7.90
2018-12-13T11:26:29.864Z,7.40
2018-12-13T11:27:29.756Z,6.70
2018-12-13T11:28:29.876Z,7.00
2018-12-13T11:29:29.747Z,7.20
2018-12-13T11:30:29.805Z,7.50
2018-12-13T11:31:29.714Z,6.70
2018-12-13T11:32:29.811Z,7.10
2018-12-13T11:33:29.697Z,6.70
2018-12-13T11:34:29.817Z,6.60
2018-12-13T11:35:29.737Z,6.80
2018-12-13T11:36:29.667Z,6.90
2018-12-13T11:37:29.766Z,6.60
2018-12-13T11:38:29.643Z,7.00
2018-12-13T11:39:29.756Z,6.60
2018-12-13T11:40:29.617Z,6.70
2018-12-13T11:41:29.665Z,7.20
2018-12-13T11:42:29.586Z,6.90
2018-12-13T11:43:29.680Z,6.80
2018-12-13T11:44:29.567Z,7.60
2018-12-13T11:45:29.695Z,7.00
2018-12-13T11:46:29.541Z,7.00
2018-12-13T11:47:29.605Z,7.10
2018-12-13T11:48:29.526Z,7.40
2018-12-13T11:49:29.617Z,7.80
2018-12-13T11:50:29.487Z,6.70
2018-12-13T11:51:29.475Z,7.00
2018-12-13T11:52:29.535Z,7.00
2018-12-13T11:53:29.456Z,7.50
2018-12-13T11:54:29.552Z,7.40
2018-12-13T11:55:29.427Z,7.50
2018-12-13T11:56:29.427Z,7.10
2018-12-13T11:57:29.410Z,7.20
2018-12-13T11:58:29.475Z,7.10
2018-12-13T11:59:29.378Z,6.80
2018-12-13T12:00:29.498Z,7.30
2018-12-13T12:01:29.357Z,7.40
2018-12-13T12:02:29.507Z,7.10
2018-12-13T12:03:29.329Z,7.40
2018-12-13T12:04:29.428Z,7.40
2018-12-13T12:05:29.318Z,8.10
2018-12-13T12:06:29.428Z,8.30
2018-12-13T12:07:29.281Z,8.20
2018-12-13T12:08:29.349Z,8.10
2018-12-13T12:09:29.256Z,9.00
2018-12-13T12:10:29.355Z,8.10
2018-12-13T12:11:29.238Z,8.50
2018-12-13T12:12:29.205Z,8.80
2018-12-13T12:13:29.209Z,8.40
2018-12-13T12:14:29.242Z,7.30
2018-12-13T12:15:29.162Z,7.60
2018-12-13T12:16:29.227Z,7.90
2018-12-13T12:17:29.237Z,11.70
2018-12-13T12:18:29.117Z,17.10
2018-12-13T12:19:29.160Z,14.80
2018-12-13T12:20:29.093Z,9.60
2018-12-13T12:21:29.173Z,10.10
2018-12-13T12:22:29.187Z,9.50
2018-12-13T12:23:29.067Z,9.90
2018-12-13T12:24:29.017Z,8.50
2018-12-13T12:25:29.086Z,7.80
2018-12-13T12:26:28.979Z,7.80
2018-12-13T12:27:29.007Z,7.00
2018-12-13T12:28:28.948Z,7.70
2018-12-13T12:29:29.008Z,7.50
2018-12-13T12:30:28.908Z,8.30
2018-12-13T12:31:28.917Z,7.80
2018-12-13T12:32:28.869Z,8.10
2018-12-13T12:33:28.850Z,8.20
2018-12-13T12:34:28.948Z,7.90
2018-12-13T12:35:28.814Z,8.00
2018-12-13T12:36:28.857Z,7.70
2018-12-13T12:37:28.780Z,7.30
2018-12-13T12:38:28.738Z,7.70
2018-12-13T12:39:28.727Z,8.20
2018-12-13T12:40:28.772Z,8.00
2018-12-13T12:41:28.686Z,7.80
2018-12-13T12:42:28.675Z,7.90
2018-12-13T12:43:28.645Z,7.60
2018-12-13T12:44:28.686Z,7.60
2018-12-13T12:45:28.647Z,7.60
2018-12-13T12:46:28.598Z,7.80
2018-12-13T12:47:28.567Z,7.50
2018-12-13T12:48:28.628Z,7.50
2018-12-13T12:49:28.517Z,7.20
2018-12-13T12:50:28.528Z,7.50
2018-12-13T12:51:29.606Z,7.20
2018-12-13T12:52:28.539Z,7.40
2018-12-13T12:53:28.435Z,7.20
2018-12-13T12:54:28.407Z,7.40
2018-12-13T12:55:28.457Z,7.00
2018-12-13T12:56:28.377Z,7.50
2018-12-13T12:57:28.385Z,7.30
2018-12-13T12:58:28.326Z,7.40
2018-12-13T12:59:28.309Z,7.30
2018-12-13T13:00:28.288Z,7.00
2018-12-13T13:01:28.323Z,7.10
2018-12-13T13:02:28.237Z,7.20
2018-12-13T13:03:29.325Z,7.70
2018-12-13T13:04:28.199Z,7.70
2018-12-13T13:05:28.212Z,7.40
2018-12-13T13:06:28.164Z,7.20
2018-12-13T13:07:28.215Z,7.80
2018-12-13T13:08:28.123Z,7.80
2018-12-13T13:09:28.137Z,7.80
2018-12-13T13:10:28.067Z,7.60
2018-12-13T13:11:28.147Z,7.60
2018-12-13T13:12:28.034Z,7.20
2018-12-13T13:13:28.057Z,7.40
2018-12-13T13:14:27.991Z,7.70
2018-12-13T13:15:27.977Z,7.70
2018-12-13T13:16:27.986Z,11.90
2018-12-13T13:17:27.983Z,9.30
2018-12-13T13:18:28.054Z,8.00
2018-12-13T13:19:27.874Z,9.00
2018-12-13T13:20:27.882Z,8.60
2018-12-13T13:21:27.846Z,9.00
2018-12-13T13:22:27.910Z,8.40
2018-12-13T13:23:27.794Z,8.60
2018-12-13T13:24:27.836Z,9.90
2018-12-13T13:25:27.752Z,12.90
2018-12-13T13:26:27.828Z,11.30
2018-12-13T13:27:27.705Z,10.90
2018-12-13T13:28:27.737Z,9.90
2018-12-13T13:29:27.658Z,8.40
2018-12-13T13:30:27.760Z,8.20
2018-12-13T13:31:27.626Z,8.70
2018-12-13T13:32:27.656Z,7.70
2018-12-13T13:33:27.594Z,7.80
2018-12-13T13:34:27.583Z,8.00
2018-12-13T13:35:27.528Z,8.10
2018-12-13T13:36:27.506Z,7.60
2018-12-13T13:37:27.589Z,7.90
2018-12-13T13:38:27.456Z,8.80
2018-12-13T13:39:31.453Z,7.90
2018-12-13T13:40:27.405Z,8.30
2018-12-13T13:41:27.405Z,8.20
2018-12-13T13:42:27.363Z,8.30
2018-12-13T13:43:27.423Z,8.00
2018-12-13T13:44:27.315Z,8.20
2018-12-13T13:45:27.336Z,8.20
2018-12-13T13:46:27.274Z,8.20
2018-12-13T13:47:27.346Z,8.10
2018-12-13T13:48:27.226Z,8.20
2018-12-13T13:49:27.263Z,8.10
2018-12-13T13:50:27.175Z,7.80
2018-12-13T13:51:27.269Z,8.50
2018-12-13T13:52:27.137Z,8.40
2018-12-13T13:53:27.179Z,8.60
2018-12-13T13:54:27.095Z,8.10
2018-12-13T13:55:27.096Z,8.50
2018-12-13T13:56:27.041Z,8.50
2018-12-13T13:57:27.029Z,8.90
2018-12-13T13:58:27.008Z,8.30
2018-12-13T13:59:26.977Z,8.40
2018-12-13T14:00:27.027Z,8.70
2018-12-13T14:01:26.927Z,7.90
2018-12-13T14:02:26.921Z,8.50
2018-12-13T14:03:26.876Z,8.60
2018-12-13T14:04:26.940Z,8.50
2018-12-13T14:05:26.847Z,8.50
2018-12-13T14:06:26.863Z,9.00
2018-12-13T14:07:26.775Z,8.60
2018-12-13T14:08:26.878Z,8.70
2018-12-13T14:09:26.737Z,8.20
2018-12-13T14:10:26.786Z,8.20
2018-12-13T14:11:26.689Z,8.50
2018-12-13T14:12:26.687Z,8.50
2018-12-13T14:13:26.629Z,8.30
2018-12-13T14:14:26.696Z,8.20
2018-12-13T14:15:26.585Z,8.70
2018-12-13T14:16:27.629Z,8.40
2018-12-13T14:17:26.546Z,8.80
2018-12-13T14:18:26.508Z,8.50
2018-12-13T14:19:26.486Z,8.40
2018-12-13T14:20:26.525Z,9.10
2018-12-13T14:21:26.437Z,8.60
2018-12-13T14:22:26.440Z,8.20
2018-12-13T14:23:26.449Z,8.40
2018-12-13T14:24:26.371Z,8.50
2018-12-13T14:25:26.355Z,9.00
2018-12-13T14:26:26.324Z,8.90
2018-12-13T14:27:26.376Z,9.60
2018-12-13T14:28:26.266Z,9.10
2018-12-13T14:29:26.278Z,8.70
2018-12-13T14:30:26.214Z,9.40
2018-12-13T14:31:26.288Z,10.40
2018-12-13T14:32:26.155Z,16.90
2018-12-13T14:33:26.222Z,15.00
2018-12-13T14:34:26.107Z,12.60
2018-12-13T14:35:26.128Z,15.70
2018-12-13T14:36:26.066Z,13.30
2018-12-13T14:37:26.127Z,12.10
2018-12-13T14:38:26.016Z,11.30
2018-12-13T14:39:26.002Z,10.60
2018-12-13T14:40:26.044Z,10.30
2018-12-13T14:41:25.937Z,10.50
2018-12-13T14:42:25.946Z,10.90
2018-12-13T14:43:25.887Z,9.60
2018-12-13T14:44:25.855Z,9.70
2018-12-13T14:45:25.824Z,11.50
2018-12-13T14:46:25.866Z,10.60
2018-12-13T14:47:25.781Z,10.30
2018-12-13T14:48:25.788Z,9.90
2018-12-13T14:49:25.728Z,9.70
2018-12-13T14:50:25.795Z,9.30
2018-12-13T14:51:25.668Z,12.70
2018-12-13T14:52:25.709Z,12.60
2018-12-13T14:53:25.617Z,10.90
2018-12-13T14:54:25.618Z,9.60
2018-12-13T14:55:25.568Z,9.70
2018-12-13T14:56:25.627Z,8.70
2018-12-13T14:57:25.518Z,9.30
2018-12-13T14:58:25.537Z,9.00
2018-12-13T14:59:25.468Z,9.40
2018-12-13T15:00:25.449Z,9.30
2018-12-13T15:01:25.460Z,9.20
2018-12-13T15:02:25.378Z,9.40
2018-12-13T15:03:25.472Z,9.90
2018-12-13T15:04:25.329Z,9.40
2018-12-13T15:05:25.308Z,9.80
2018-12-13T15:06:25.277Z,10.20
2018-12-13T15:07:25.288Z,10.10
2018-12-13T15:08:25.217Z,13.30
2018-12-13T15:09:25.301Z,14.00
2018-12-13T15:10:25.157Z,14.10
2018-12-13T15:11:25.142Z,12.20
2018-12-13T15:12:25.217Z,10.70
2018-12-13T15:13:25.078Z,11.20
2018-12-13T15:15:56.809Z,10.00
2018-12-13T15:16:56.766Z,10.20
2018-12-13T15:19:00.767Z,10.20
2018-12-13T15:20:00.676Z,9.80
2018-12-13T15:22:04.690Z,9.70
2018-12-13T15:23:04.586Z,10.20
2018-12-13T15:25:08.587Z,10.10
2018-12-13T15:26:08.496Z,10.10
2018-12-13T15:28:12.521Z,10.30
2018-12-13T15:29:12.407Z,10.60
2018-12-13T15:31:16.407Z,10.20
2018-12-13T15:32:16.376Z,10.90
2018-12-13T15:34:20.328Z,11.20
2018-12-13T15:35:20.226Z,10.60
2018-12-13T15:37:24.179Z,12.20
2018-12-13T15:38:24.145Z,12.60
2018-12-13T15:40:28.150Z,20.30
2018-12-13T15:41:28.048Z,33.70
2018-12-13T15:43:32.206Z,24.60
2018-12-13T15:44:32.061Z,20.90
2018-12-13T15:46:36.070Z,14.10
2018-12-13T15:47:35.996Z,14.70
2018-12-13T15:49:29.025Z,27.30
2018-12-13T15:50:28.923Z,23.80
2018-12-13T15:52:32.998Z,20.30
2018-12-13T15:53:32.833Z,16.00
2018-12-13T15:55:36.879Z,18.50
2018-12-13T15:56:36.859Z,14.00
2018-12-13T15:58:40.803Z,24.30
2018-12-13T15:59:40.759Z,14.40
2018-12-13T16:01:44.867Z,22.20
2018-12-13T16:02:44.767Z,17.20
2018-12-13T16:04:48.779Z,17.90
2018-12-13T16:05:48.709Z,19.80
2018-12-13T16:07:52.792Z,15.90
2018-12-13T16:08:52.795Z,13.50
2018-12-13T16:10:56.728Z,25.20
2018-12-13T16:11:56.657Z,19.10
2018-12-13T16:14:00.683Z,18.80
2018-12-13T16:15:00.719Z,18.20
2018-12-13T16:16:00.618Z,21.50
2018-12-13T16:17:00.730Z,19.10
2018-12-13T16:18:00.559Z,14.90
2018-12-13T16:19:00.645Z,15.30
2018-12-13T16:20:00.503Z,12.90
2018-12-13T16:21:00.560Z,12.70
2018-12-13T16:22:00.455Z,17.60
2018-12-13T16:23:00.568Z,16.30
2018-12-13T16:24:00.379Z,13.20
2018-12-13T16:25:00.369Z,15.00
2018-12-13T16:26:00.491Z,17.40
2018-12-13T16:27:00.297Z,26.30
2018-12-13T16:28:00.405Z,23.90
2018-12-13T16:29:00.228Z,18.10
2018-12-13T16:30:00.308Z,14.20
2018-12-13T16:31:00.172Z,13.70
2018-12-13T16:32:00.238Z,12.90
2018-12-13T16:33:00.122Z,13.00
2018-12-13T16:34:00.181Z,12.20
2018-12-13T16:35:00.059Z,13.70
2018-12-13T16:36:00.045Z,16.90
2018-12-13T16:37:00.159Z,16.50
2018-12-13T16:37:59.977Z,20.30
2018-12-13T16:39:00.072Z,23.70
2018-12-13T16:39:59.957Z,17.40
2018-12-13T16:40:59.881Z,14.50
2018-12-13T16:41:59.988Z,25.10
2018-12-13T16:42:59.823Z,18.70
2018-12-13T16:43:59.841Z,14.20
2018-12-13T16:44:59.791Z,13.40
2018-12-13T16:45:59.734Z,12.30
2018-12-13T16:46:59.699Z,12.20
2018-12-13T16:47:59.840Z,12.10
2018-12-13T16:48:59.641Z,12.20
2018-12-13T16:49:59.740Z,13.30
2018-12-13T16:50:59.601Z,14.20
2018-12-13T16:51:59.552Z,15.60
2018-12-13T16:52:59.658Z,14.00
2018-12-13T16:53:59.490Z,13.90
2018-12-13T16:54:59.568Z,16.30
2018-12-13T16:55:59.439Z,15.70